Time;durP1;ratioP1;P1;durP2;ratioP2;P2;SDS_P1;SDS_P2;PMS_P1;PMS_P2;Temp;Humidity;BMP_temperature;BMP_pressure;BME280_temperature;BME280_humidity;BME280_pressure;Samples;Min_cycle;Max_cycle;Signal;HPM_P1;HPM_P2
2022/08/23 00:01:47;;;;;;;1.88;1.45;;;16.80;99.90;16.90;100675.00;;;;4895120;28;93896;-65
2022/08/23 00:04:20;;;;;;;1.65;1.40;;;16.80;99.90;16.90;100676.00;;;;4896957;28;93186;-65
2022/08/23 00:06:49;;;;;;;1.35;1.25;;;16.80;99.90;16.90;100678.00;;;;4896468;28;93119;-65
2022/08/23 00:09:15;;;;;;;2.15;1.85;;;16.80;99.90;16.90;100670.00;;;;4895550;28;108237;-66
2022/08/23 00:11:47;;;;;;;1.48;1.38;;;16.80;99.90;16.90;100675.00;;;;4895654;28;93799;-66
2022/08/23 00:14:22;;;;;;;1.80;1.55;;;16.80;99.90;16.90;100675.00;;;;4894707;28;92777;-66
2022/08/23 00:16:49;;;;;;;1.30;1.20;;;16.80;99.90;16.90;100659.00;;;;4896529;28;92771;-66
2022/08/23 00:19:17;;;;;;;2.20;2.00;;;16.80;99.90;16.90;100656.00;;;;4896227;28;108832;-65
2022/08/23 00:21:44;;;;;;;3.15;1.15;;;16.80;99.90;16.90;100668.00;;;;4893657;28;109189;-66
2022/08/23 00:24:11;;;;;;;2.90;1.50;;;16.80;99.90;16.90;100664.00;;;;4895464;28;101337;-66
2022/08/23 00:27:06;;;;;;;1.55;1.45;;;16.80;99.90;16.90;100659.00;;;;4895685;28;94099;-66
2022/08/23 00:29:51;;;;;;;1.67;1.58;;;16.80;99.90;16.90;100657.00;;;;4893783;28;93542;-66
2022/08/23 00:32:28;;;;;;;1.50;1.40;;;16.80;99.90;16.90;100660.00;;;;4893330;28;116578;-66
2022/08/23 00:34:54;;;;;;;1.42;1.25;;;16.80;99.90;16.90;100659.00;;;;4896041;28;92925;-67
2022/08/23 00:37:21;;;;;;;5.28;1.33;;;16.80;99.90;16.90;100655.00;;;;4895895;28;92818;-66
2022/08/23 00:39:47;;;;;;;4.32;1.42;;;16.80;99.90;16.90;100654.00;;;;4894547;28;112031;-67
2022/08/23 00:48:12;;;;;;;1.90;1.67;;;16.80;99.90;16.90;100655.00;;;;4894521;28;93370;-65
2022/08/23 00:50:59;;;;;;;2.88;1.75;;;16.80;99.90;16.90;100655.00;;;;4899600;28;104351;-66
2022/08/23 00:53:33;;;;;;;3.00;1.38;;;16.80;99.90;16.90;100650.00;;;;4906449;28;111642;-65
2022/08/23 00:56:03;;;;;;;2.30;1.60;;;16.80;99.90;16.90;100649.00;;;;4894211;28;92917;-65
2022/08/23 00:58:30;;;;;;;2.38;1.90;;;16.80;99.90;16.90;100640.00;;;;4893023;28;92807;-65
2022/08/23 01:00:59;;;;;;;1.92;1.60;;;16.80;99.90;17.00;100637.00;;;;4895712;28;93794;-66
2022/08/23 01:03:28;;;;;;;1.58;1.17;;;16.80;99.90;16.90;100647.00;;;;4893082;28;105913;-65
2022/08/23 01:06:07;;;;;;;1.45;1.30;;;16.80;99.90;16.90;100644.00;;;;4894992;28;92996;-65
2022/08/23 01:08:34;;;;;;;1.67;1.20;;;16.80;99.90;17.00;100640.00;;;;4895426;28;92977;-65
2022/08/23 01:11:14;;;;;;;1.45;1.00;;;16.90;99.90;16.90;100636.00;;;;4890251;28;92562;-65
2022/08/23 01:13:52;;;;;;;1.75;1.40;;;16.80;99.90;16.90;100632.00;;;;4894923;28;92720;-65
2022/08/23 01:16:27;;;;;;;2.08;1.45;;;17.10;99.90;17.00;100633.00;;;;4907253;28;94837;-65
2022/08/23 01:18:54;;;;;;;1.67;1.08;;;16.90;99.90;17.00;100636.00;;;;4908298;28;93927;-65
2022/08/23 01:21:35;;;;;;;1.55;1.45;;;16.90;99.90;17.00;100634.00;;;;4893512;28;123048;-65
2022/08/23 01:24:03;;;;;;;3.22;1.20;;;16.90;99.90;17.00;100641.00;;;;4895335;28;93193;-65
2022/08/23 01:26:34;;;;;;;1.73;1.45;;;16.90;99.90;17.00;100641.00;;;;4894111;28;111373;-65
2022/08/23 01:29:03;;;;;;;1.25;1.15;;;16.80;99.90;17.00;100640.00;;;;4894687;28;92884;-65
2022/08/23 01:31:29;;;;;;;1.63;1.10;;;16.90;99.90;17.00;100638.00;;;;4891213;28;95562;-65
2022/08/23 01:34:06;;;;;;;1.05;0.70;;;16.80;99.90;16.90;100642.00;;;;4892968;28;121590;-65
2022/08/23 01:36:32;;;;;;;2.55;1.23;;;16.80;99.90;16.90;100637.00;;;;4894030;28;92152;-65
2022/08/23 01:38:58;;;;;;;1.92;1.27;;;16.80;99.90;16.90;100635.00;;;;4894166;28;93098;-65
2022/08/23 01:41:25;;;;;;;1.10;1.00;;;16.80;99.90;16.90;100633.00;;;;4892330;28;110484;-65
2022/08/23 01:43:50;;;;;;;1.40;0.93;;;16.80;99.90;16.90;100635.00;;;;4892961;28;93753;-65
2022/08/23 01:46:19;;;;;;;1.33;1.23;;;16.80;99.90;16.90;100635.00;;;;4893288;28;92637;-65
2022/08/23 01:48:48;;;;;;;1.55;1.25;;;16.70;99.90;16.90;100633.00;;;;4894680;28;92904;-65
2022/08/23 01:51:16;;;;;;;0.80;0.80;;;16.80;99.90;16.80;100631.00;;;;4890479;28;108458;-64
2022/08/23 01:53:43;;;;;;;1.50;1.13;;;16.70;99.90;16.90;100632.00;;;;4893799;28;93018;-64
2022/08/23 01:56:09;;;;;;;1.52;1.25;;;16.80;99.90;16.90;100630.00;;;;4892761;28;100055;-64
2022/08/23 01:58:35;;;;;;;1.65;1.05;;;16.70;99.90;16.80;100626.00;;;;4893566;28;92885;-64
2022/08/23 02:01:03;;;;;;;1.23;1.05;;;16.70;99.90;16.90;100630.00;;;;4893206;28;92857;-64
2022/08/23 02:03:30;;;;;;;1.25;0.90;;;16.70;99.90;16.90;100631.00;;;;4893344;28;93206;-64
2022/08/23 02:05:57;;;;;;;1.45;1.27;;;16.70;99.90;16.90;100627.00;;;;4893478;28;92779;-64
2022/08/23 02:11:13;;;;;;;1.00;0.95;;;16.80;99.90;16.90;100625.00;;;;4889990;28;92719;-64
2022/08/23 02:13:39;;;;;;;1.63;1.25;;;16.80;99.90;16.90;100624.00;;;;4892921;28;93622;-64
2022/08/23 02:16:04;;;;;;;3.15;1.27;;;16.80;99.90;16.90;100632.00;;;;4892143;28;109408;-64
2022/08/23 02:18:30;;;;;;;1.48;1.10;;;16.80;99.90;16.90;100632.00;;;;4892513;28;102941;-63
2022/08/23 02:20:56;;;;;;;1.58;1.48;;;16.70;99.90;16.90;100644.00;;;;4891545;28;93615;-63
2022/08/23 02:23:22;;;;;;;3.53;0.95;;;16.80;99.90;16.90;100638.00;;;;4891710;28;123459;-63
2022/08/23 02:25:50;;;;;;;2.05;1.80;;;16.80;99.90;16.90;100632.00;;;;4893866;28;92110;-64
2022/08/23 02:28:17;;;;;;;1.30;1.10;;;16.80;99.90;16.90;100639.00;;;;4853135;28;1135828;-63
2022/08/23 02:30:47;;;;;;;1.60;1.50;;;16.80;99.90;16.90;100634.00;;;;4894218;28;93243;-63
2022/08/23 02:33:13;;;;;;;1.70;1.25;;;16.80;99.90;17.00;100631.00;;;;4891842;28;122618;-63
2022/08/23 02:35:40;;;;;;;1.88;1.70;;;16.80;99.90;17.00;100634.00;;;;4893438;28;92995;-63
2022/08/23 02:38:10;;;;;;;2.33;1.40;;;16.80;99.90;17.00;100641.00;;;;4894437;28;93042;-63
2022/08/23 02:40:37;;;;;;;2.35;1.20;;;16.80;99.90;17.00;100635.00;;;;4894336;28;92705;-63
2022/08/23 02:43:05;;;;;;;2.30;1.60;;;16.80;99.90;17.00;100639.00;;;;4890355;28;93032;-63
2022/08/23 02:45:37;;;;;;;1.30;1.23;;;16.90;99.90;17.00;100642.00;;;;4894543;28;92807;-63
2022/08/23 02:48:06;;;;;;;1.55;1.45;;;16.90;99.90;17.00;100650.00;;;;4893578;28;92727;-63
2022/08/23 02:50:33;;;;;;;2.25;0.63;;;16.90;99.90;17.00;100652.00;;;;4894842;28;92374;-66
2022/08/23 02:52:59;;;;;;;1.73;1.50;;;16.90;99.90;17.00;100647.00;;;;4893645;28;112838;-63
2022/08/23 02:55:26;;;;;;;1.90;1.80;;;16.90;99.90;17.00;100649.00;;;;4894740;28;93110;-64
2022/08/23 02:57:51;;;;;;;1.65;1.55;;;16.90;99.90;17.00;100650.00;;;;4892317;28;94206;-64
2022/08/23 03:00:18;;;;;;;1.70;1.15;;;16.90;99.90;17.00;100652.00;;;;4894823;28;92927;-63
2022/08/23 03:02:45;;;;;;;5.25;1.40;;;16.90;99.90;17.00;100662.00;;;;4893650;28;93281;-63
2022/08/23 03:05:15;;;;;;;1.67;1.30;;;16.90;99.90;17.00;100649.00;;;;4894269;28;92761;-63
2022/08/23 03:07:42;;;;;;;1.20;1.10;;;17.00;99.90;17.00;100649.00;;;;4893695;28;92836;-67
2022/08/23 03:10:10;;;;;;;2.95;1.80;;;17.00;99.90;17.10;100651.00;;;;4893962;28;93397;-64
2022/08/23 03:12:36;;;;;;;1.95;1.58;;;16.90;99.90;17.10;100651.00;;;;4893170;28;100410;-64
2022/08/23 03:15:04;;;;;;;1.58;1.45;;;16.90;99.90;17.10;100653.00;;;;4894076;28;92376;-63
2022/08/23 03:17:29;;;;;;;1.92;1.48;;;17.00;99.90;17.10;100658.00;;;;4893363;28;92918;-63
2022/08/23 03:19:55;;;;;;;1.77;1.60;;;17.00;99.90;17.10;100657.00;;;;4891574;28;122440;-63
2022/08/23 03:22:22;;;;;;;1.60;1.45;;;17.00;99.90;17.10;100658.00;;;;4891088;28;122801;-64
2022/08/23 03:24:48;;;;;;;6.40;1.65;;;17.00;99.90;17.10;100661.00;;;;4893848;28;92897;-64
2022/08/23 03:27:14;;;;;;;2.58;1.73;;;17.00;99.90;17.10;100664.00;;;;4892427;28;102194;-64
2022/08/23 03:29:39;;;;;;;1.58;1.30;;;17.00;99.90;17.20;100665.00;;;;4893016;28;122184;-63
2022/08/23 03:32:06;;;;;;;1.73;1.40;;;17.10;99.90;17.20;100661.00;;;;4892752;28;99747;-66
2022/08/23 03:34:32;;;;;;;5.05;1.88;;;17.10;99.90;17.20;100664.00;;;;4893948;28;92785;-63
2022/08/23 03:36:58;;;;;;;3.20;1.92;;;17.00;99.90;17.20;100665.00;;;;4892798;28;108612;-64
2022/08/23 03:39:24;;;;;;;3.00;2.03;;;17.00;99.90;17.10;100657.00;;;;4893971;28;92187;-64
2022/08/23 03:41:50;;;;;;;1.83;1.73;;;17.00;99.90;17.20;100663.00;;;;4892006;28;122078;-65
2022/08/23 03:44:15;;;;;;;2.30;1.63;;;17.00;99.90;17.10;100660.00;;;;4892719;28;109386;-64
2022/08/23 03:46:41;;;;;;;1.75;1.48;;;17.00;99.90;17.10;100659.00;;;;4891893;28;109270;-64
2022/08/23 03:49:07;;;;;;;4.15;1.73;;;17.00;99.90;17.10;100667.00;;;;4893217;28;94241;-64
2022/08/23 03:51:33;;;;;;;2.03;1.92;;;17.00;99.90;17.10;100660.00;;;;4892916;28;99966;-64
2022/08/23 03:54:00;;;;;;;5.88;1.58;;;17.00;99.90;17.10;100661.00;;;;4891379;28;104782;-64
2022/08/23 03:56:34;;;;;;;2.20;1.63;;;17.00;99.90;17.10;100666.00;;;;4893500;28;93043;-64
2022/08/23 03:59:06;;;;;;;2.90;1.60;;;17.00;99.90;17.10;100665.00;;;;4890731;28;94111;-64
2022/08/23 04:01:31;;;;;;;1.40;1.30;;;17.00;99.90;17.10;100664.00;;;;4893195;28;93046;-64
2022/08/23 04:03:59;;;;;;;3.15;1.73;;;17.00;99.90;17.10;100666.00;;;;4893529;28;109201;-64
2022/08/23 04:06:30;;;;;;;1.70;1.60;;;17.00;99.90;17.10;100673.00;;;;4893311;28;92707;-64
2022/08/23 04:08:56;;;;;;;2.47;1.45;;;17.00;99.90;17.10;100672.00;;;;4893066;28;93156;-64
2022/08/23 04:11:22;;;;;;;2.42;1.10;;;17.00;99.90;17.10;100670.00;;;;4891417;28;120905;-65
2022/08/23 04:13:48;;;;;;;2.25;1.80;;;17.00;99.90;17.10;100671.00;;;;4893942;28;93073;-64
2022/08/23 04:16:14;;;;;;;3.25;1.50;;;17.10;99.90;17.10;100672.00;;;;4891828;28;109857;-64
2022/08/23 04:18:40;;;;;;;1.90;1.67;;;17.00;99.90;17.10;100669.00;;;;4891639;28;121537;-64
2022/08/23 04:21:15;;;;;;;3.25;2.42;;;17.00;99.90;17.10;100665.00;;;;4891959;28;93359;-64
2022/08/23 04:23:42;;;;;;;4.18;1.73;;;17.00;99.90;17.10;100663.00;;;;4905026;28;92899;-64
2022/08/23 04:26:07;;;;;;;3.78;1.90;;;17.00;99.90;17.10;100675.00;;;;4892796;28;92894;-64
2022/08/23 04:28:33;;;;;;;2.15;1.23;;;17.00;99.90;17.20;100675.00;;;;4904748;28;113059;-64
2022/08/23 04:31:08;;;;;;;2.35;1.42;;;17.00;99.90;17.20;100676.00;;;;4893453;28;121393;-64
2022/08/23 04:33:34;;;;;;;2.78;2.03;;;17.00;99.90;17.20;100674.00;;;;4896202;28;92786;-64
2022/08/23 04:36:01;;;;;;;1.73;1.55;;;17.10;99.90;17.20;100686.00;;;;4895810;28;93959;-64
2022/08/23 04:38:27;;;;;;;2.33;1.88;;;17.10;99.90;17.20;100682.00;;;;4895200;28;110225;-65
2022/08/23 04:43:39;;;;;;;3.20;2.05;;;17.10;99.90;17.20;100689.00;;;;4893059;28;92912;-64
2022/08/23 04:46:05;;;;;;;3.03;2.20;;;17.10;99.90;17.30;100690.00;;;;4895234;28;96259;-64
2022/08/23 04:48:32;;;;;;;2.25;2.05;;;17.10;99.90;17.30;100694.00;;;;4895500;28;103197;-64
2022/08/23 04:50:58;;;;;;;4.93;2.25;;;17.10;99.90;17.30;100693.00;;;;4894735;28;122564;-64
2022/08/23 04:53:24;;;;;;;3.25;1.90;;;17.20;99.90;17.30;100685.00;;;;4896370;28;91990;-64
2022/08/23 04:55:51;;;;;;;2.35;2.15;;;17.20;99.90;17.40;100688.00;;;;4892963;28;108013;-64
2022/08/23 04:58:17;;;;;;;2.13;1.90;;;17.20;99.90;17.40;100681.00;;;;4894425;28;95402;-64
2022/08/23 05:00:43;;;;;;;5.60;1.80;;;17.30;99.90;17.40;100680.00;;;;4895145;28;100520;-64
2022/08/23 05:03:09;;;;;;;3.13;2.35;;;17.30;99.90;17.40;100683.00;;;;4895484;28;101263;-63
2022/08/23 05:05:35;;;;;;;3.45;1.88;;;17.30;99.90;17.50;100678.00;;;;4894813;28;108865;-63
2022/08/23 05:08:00;;;;;;;4.75;2.20;;;17.30;99.90;17.50;100697.00;;;;4895531;28;92960;-64
2022/08/23 05:10:27;;;;;;;3.58;2.20;;;17.30;99.90;17.50;100694.00;;;;4893719;28;122485;-63
2022/08/23 05:12:53;;;;;;;2.47;2.22;;;17.40;99.90;17.50;100688.00;;;;4896139;28;92964;-64
2022/08/23 05:15:19;;;;;;;2.22;2.03;;;17.40;99.90;17.50;100698.00;;;;4892678;28;93185;-63
2022/08/23 05:17:45;;;;;;;2.60;2.35;;;17.40;99.90;17.60;100698.00;;;;4895586;28;100898;-63
2022/08/23 05:20:10;;;;;;;2.03;1.83;;;17.40;99.90;17.60;100696.00;;;;4894007;28;122510;-63
2022/08/23 05:22:40;;;;;;;3.83;2.45;;;17.50;99.90;17.60;100692.00;;;;4894447;28;108989;-63
2022/08/23 05:25:06;;;;;;;3.00;2.30;;;17.50;99.90;17.70;100698.00;;;;4895244;28;93854;-63
2022/08/23 05:27:32;;;;;;;2.60;1.65;;;17.50;99.90;17.70;100704.00;;;;4893739;28;115617;-63
2022/08/23 05:29:58;;;;;;;3.65;2.50;;;17.60;99.90;17.80;100693.00;;;;4894227;28;121869;-63
2022/08/23 05:32:24;;;;;;;2.95;2.22;;;17.60;99.90;17.80;100713.00;;;;4893291;28;102998;-63
2022/08/23 05:34:49;;;;;;;3.80;2.47;;;17.70;99.90;17.80;100711.00;;;;4894981;28;100403;-63
2022/08/23 05:37:16;;;;;;;3.65;2.28;;;17.70;99.90;17.90;100713.00;;;;4893823;28;122817;-63
2022/08/23 05:39:42;;;;;;;4.07;2.28;;;17.70;99.90;17.90;100711.00;;;;4895356;28;92959;-64
2022/08/23 05:42:12;;;;;;;2.83;2.35;;;17.80;99.90;18.00;100717.00;;;;4894315;28;92184;-63
2022/08/23 05:44:38;;;;;;;2.30;1.42;;;17.80;99.90;18.00;100716.00;;;;4893457;28;92825;-64
2022/08/23 05:47:06;;;;;;;4.22;2.63;;;17.90;99.90;18.10;100713.00;;;;4894026;28;122395;-63
2022/08/23 05:49:37;;;;;;;5.55;2.33;;;17.90;99.90;18.10;100710.00;;;;4892136;28;93752;-64
2022/08/23 05:52:06;;;;;;;1.80;1.70;;;17.90;99.90;18.10;100713.00;;;;4895040;28;92813;-64
2022/08/23 05:54:33;;;;;;;3.45;1.60;;;18.00;99.90;18.10;100714.00;;;;4895464;28;92710;-63
2022/08/23 05:56:59;;;;;;;2.33;2.13;;;18.00;99.90;18.20;100717.00;;;;4908360;28;109084;-63
2022/08/23 05:59:24;;;;;;;2.80;2.42;;;18.00;99.90;18.20;100719.00;;;;4894932;28;110674;-63
2022/08/23 06:01:50;;;;;;;2.75;2.10;;;18.10;99.90;18.20;100725.00;;;;4893189;28;110788;-63
2022/08/23 06:04:16;;;;;;;3.65;2.80;;;18.10;99.90;18.30;100722.00;;;;4894056;28;107695;-63
2022/08/23 06:06:42;;;;;;;2.05;1.70;;;18.10;99.90;18.30;100731.00;;;;4894830;28;93216;-63
2022/08/23 06:09:14;;;;;;;3.63;2.70;;;18.20;99.90;18.40;100735.00;;;;4894536;28;93741;-63
2022/08/23 06:11:45;;;;;;;2.50;2.08;;;18.20;99.90;18.40;100735.00;;;;4894145;28;92667;-63
2022/08/23 06:14:11;;;;;;;3.15;2.55;;;18.20;99.90;18.40;100735.00;;;;4894873;28;93836;-63
2022/08/23 06:16:46;;;;;;;4.70;2.40;;;18.30;99.90;18.50;100738.00;;;;4894916;28;93317;-63
2022/08/23 06:19:13;;;;;;;4.03;2.15;;;18.30;99.90;18.50;100733.00;;;;4892305;28;93509;-63
2022/08/23 06:21:40;;;;;;;2.92;2.63;;;18.40;99.90;18.50;100734.00;;;;4891247;28;93109;-63
2022/08/23 06:24:07;;;;;;;2.47;2.28;;;18.40;99.90;18.60;100736.00;;;;4894837;28;93311;-63
2022/08/23 06:26:41;;;;;;;2.78;2.58;;;18.40;99.90;18.60;100745.00;;;;4891165;28;92918;-63
2022/08/23 06:29:11;;;;;;;3.13;2.25;;;18.50;99.90;18.70;100740.00;;;;4894449;28;93334;-63
2022/08/23 06:31:44;;;;;;;3.95;2.55;;;18.50;99.90;18.70;100739.00;;;;4894752;28;92062;-63
2022/08/23 06:34:32;;;;;;;2.97;2.67;;;18.50;99.90;18.70;100737.00;;;;4900518;28;92783;-63
2022/08/23 06:37:04;;;;;;;3.60;2.20;;;18.60;99.90;18.80;100741.00;;;;4893537;28;93183;-64
2022/08/23 06:39:31;;;;;;;3.03;2.72;;;18.60;99.90;18.80;100743.00;;;;4891806;28;93834;-64
2022/08/23 06:42:07;;;;;;;4.97;3.25;;;18.70;99.90;18.80;100740.00;;;;4893113;28;109862;-63
2022/08/23 06:44:34;;;;;;;3.38;2.47;;;18.70;99.90;18.90;100743.00;;;;4894306;28;93137;-63
2022/08/23 06:47:00;;;;;;;4.68;2.78;;;18.80;99.90;18.90;100748.00;;;;4891941;28;93079;-63
2022/08/23 06:49:27;;;;;;;3.25;2.92;;;18.80;99.90;18.90;100745.00;;;;4893576;28;113898;-63
2022/08/23 06:51:58;;;;;;;3.50;2.92;;;18.80;99.90;18.90;100745.00;;;;4893751;28;92809;-63
2022/08/23 06:54:32;;;;;;;2.20;2.00;;;18.80;99.90;18.90;100746.00;;;;4894747;28;92888;-63
2022/08/23 06:56:59;;;;;;;3.00;2.47;;;18.80;99.90;19.00;100742.00;;;;4892442;28;92434;-64
2022/08/23 06:59:25;;;;;;;3.40;2.83;;;18.80;99.90;19.00;100741.00;;;;4893842;28;109460;-64
2022/08/23 07:01:55;;;;;;;2.70;2.25;;;18.80;99.90;19.00;100749.00;;;;4894059;28;92879;-64
2022/08/23 07:04:39;;;;;;;3.55;2.88;;;18.90;99.90;19.10;100746.00;;;;4893857;28;93838;-64
2022/08/23 07:07:07;;;;;;;3.33;2.47;;;18.90;99.90;19.10;100750.00;;;;4891616;28;122527;-64
2022/08/23 07:09:34;;;;;;;3.30;2.75;;;18.90;99.90;19.10;100750.00;;;;4893290;28;93553;-64
2022/08/23 07:12:00;;;;;;;3.83;2.72;;;19.00;99.90;19.20;100746.00;;;;4890693;28;96611;-63
2022/08/23 07:14:26;;;;;;;4.97;3.40;;;19.00;99.90;19.20;100744.00;;;;4893836;28;96799;-64
2022/08/23 07:16:56;;;;;;;2.28;2.08;;;19.10;99.90;19.20;100749.00;;;;4892743;28;93924;-64
2022/08/23 07:19:26;;;;;;;9.52;2.65;;;19.10;99.90;19.30;100743.00;;;;4893973;28;92805;-64
2022/08/23 07:21:52;;;;;;;3.47;3.17;;;19.10;99.90;19.30;100750.00;;;;4892309;28;92284;-63
2022/08/23 07:24:19;;;;;;;3.58;2.63;;;19.10;99.90;19.30;100750.00;;;;4892851;28;101767;-63
2022/08/23 07:26:50;;;;;;;3.97;3.17;;;19.20;99.90;19.30;100751.00;;;;4891034;28;123098;-63
2022/08/23 07:29:18;;;;;;;6.13;2.95;;;19.20;99.90;19.30;100756.00;;;;4893354;28;94117;-63
2022/08/23 07:31:49;;;;;;;3.55;3.25;;;19.20;99.90;19.30;100767.00;;;;4893692;28;93108;-63
2022/08/23 07:34:15;;;;;;;3.72;3.40;;;19.20;99.90;19.40;100764.00;;;;4894196;28;92826;-64
2022/08/23 07:36:43;;;;;;;3.92;3.40;;;19.20;99.90;19.30;100770.00;;;;4892296;28;102807;-63
2022/08/23 07:39:10;;;;;;;4.13;3.72;;;19.20;99.90;19.30;100763.00;;;;4893489;28;93200;-63
2022/08/23 07:41:37;;;;;;;4.40;3.28;;;19.20;99.90;19.30;100771.00;;;;4893294;28;92805;-64
2022/08/23 07:44:07;;;;;;;5.65;2.75;;;19.20;99.90;19.30;100766.00;;;;4893741;28;92694;-63
2022/08/23 07:46:32;;;;;;;4.05;2.95;;;19.20;99.90;19.30;100761.00;;;;4892629;28;92665;-63
2022/08/23 07:49:00;;;;;;;2.97;2.63;;;19.20;99.90;19.30;100777.00;;;;4892932;28;112043;-64
2022/08/23 07:51:29;;;;;;;7.88;3.75;;;19.20;99.90;19.40;100775.00;;;;4893131;28;92903;-63
2022/08/23 07:53:55;;;;;;;3.22;2.92;;;19.20;99.90;19.40;100779.00;;;;4892601;28;97608;-63
2022/08/23 07:56:21;;;;;;;3.72;3.28;;;19.20;99.90;19.40;100778.00;;;;4892452;28;92985;-62
2022/08/23 07:58:48;;;;;;;7.80;4.07;;;19.20;99.90;19.40;100774.00;;;;4893335;28;93879;-63
2022/08/23 08:01:24;;;;;;;4.40;2.70;;;19.30;99.90;19.50;100777.00;;;;4892392;28;93141;-63
2022/08/23 08:03:53;;;;;;;6.05;3.42;;;19.30;99.90;19.50;100779.00;;;;4891117;28;92881;-62
2022/08/23 08:06:33;;;;;;;4.05;2.85;;;19.30;99.90;19.50;100775.00;;;;4894152;28;97704;-63
2022/08/23 08:08:59;;;;;;;5.97;3.22;;;19.30;99.90;19.50;100778.00;;;;4895561;28;93637;-62
2022/08/23 08:11:28;;;;;;;6.22;3.33;;;19.30;99.90;19.50;100780.00;;;;4896576;28;92048;-63
2022/08/23 08:13:55;;;;;;;7.57;4.57;;;19.40;99.90;19.60;100775.00;;;;4895915;28;98789;-62
2022/08/23 08:16:31;;;;;;;4.95;3.90;;;19.40;99.90;19.60;100782.00;;;;4896174;28;93140;-62
2022/08/23 08:19:02;;;;;;;4.45;3.25;;;19.30;99.90;19.70;100786.00;;;;4896236;28;93988;-62
2022/08/23 08:21:28;;;;;;;4.80;4.03;;;19.50;99.90;19.70;100779.00;;;;4893825;28;93051;-62
2022/08/23 08:23:56;;;;;;;4.30;3.13;;;19.50;99.90;19.80;100784.00;;;;4896507;28;109329;-62
2022/08/23 08:26:23;;;;;;;5.55;4.30;;;19.60;99.90;19.90;100791.00;;;;4886755;28;93652;-61
2022/08/23 08:28:49;;;;;;;5.70;3.22;;;19.70;99.90;20.00;100790.00;;;;4893604;28;92935;-62
2022/08/23 08:31:15;;;;;;;3.90;3.03;;;19.80;99.90;20.10;100787.00;;;;4895459;28;97554;-62
2022/08/23 08:33:41;;;;;;;5.22;3.97;;;19.90;99.90;20.20;100787.00;;;;4894725;28;93088;-63
2022/08/23 08:36:08;;;;;;;5.55;3.33;;;20.00;99.90;20.40;100784.00;;;;4895852;28;92348;-62
2022/08/23 08:38:37;;;;;;;5.28;4.00;;;20.10;99.90;20.50;100780.00;;;;4896053;28;93025;-61
2022/08/23 08:41:19;;;;;;;2.85;2.65;;;20.20;99.90;20.60;100781.00;;;;4896480;28;92841;-63
2022/08/23 08:44:19;;;;;;;3.58;2.47;;;20.40;99.90;20.80;100779.00;;;;4894188;28;99563;-63
2022/08/23 08:46:49;;;;;;;5.82;2.85;;;20.50;99.90;20.90;100776.00;;;;4893036;28;93834;-62
2022/08/23 08:49:32;;;;;;;2.60;2.40;;;20.60;99.90;21.00;100780.00;;;;4895711;28;93507;-62
2022/08/23 08:52:27;;;;;;;3.20;2.90;;;20.70;99.90;21.20;100777.00;;;;4895365;28;92914;-62
2022/08/23 08:55:22;;;;;;;4.05;3.65;;;20.90;99.90;21.30;100775.00;;;;4895825;28;92906;-62
2022/08/23 08:57:49;;;;;;;3.55;2.13;;;21.00;99.90;21.40;100777.00;;;;4895179;28;92968;-62
2022/08/23 09:00:24;;;;;;;3.38;2.22;;;21.10;99.90;21.50;100782.00;;;;4895470;28;92899;-62
2022/08/23 09:02:50;;;;;;;4.07;2.83;;;21.20;99.90;21.50;100781.00;;;;4896434;28;91951;-62
2022/08/23 09:05:27;;;;;;;4.03;2.88;;;21.30;99.90;21.60;100771.00;;;;4895809;28;92824;-62
2022/08/23 09:08:30;;;;;;;4.43;3.08;;;21.30;99.90;21.60;100778.00;;;;4894415;28;93027;-62
2022/08/23 09:11:26;;;;;;;4.30;2.17;;;21.40;99.90;21.60;100774.00;;;;4877294;28;95296;-62
2022/08/23 09:14:26;;;;;;;4.43;2.90;;;21.40;99.90;21.70;100775.00;;;;4909802;28;93235;-62
2022/08/23 09:17:03;;;;;;;2.95;2.55;;;21.50;99.90;21.70;100778.00;;;;4891550;28;99497;-62
2022/08/23 09:19:33;;;;;;;2.65;2.10;;;21.50;99.90;21.80;100787.00;;;;4895411;28;93892;-62
2022/08/23 09:22:44;;;;;;;2.28;1.80;;;21.60;99.90;21.80;100790.00;;;;4892102;28;92979;-62
2022/08/23 09:25:14;;;;;;;3.40;1.80;;;21.60;99.90;21.80;100783.00;;;;4892632;28;92625;-61
2022/08/23 09:27:42;;;;;;;4.18;2.63;;;21.60;99.90;21.80;100786.00;;;;4895207;28;93347;-63
2022/08/23 09:30:11;;;;;;;4.32;2.17;;;21.60;99.90;21.90;100783.00;;;;4895813;28;92346;-62
2022/08/23 09:32:40;;;;;;;3.40;2.90;;;21.70;99.90;21.90;100786.00;;;;4896636;28;92807;-62
2022/08/23 09:35:17;;;;;;;2.55;2.05;;;21.70;99.90;22.00;100785.00;;;;4895609;28;92876;-61
2022/08/23 09:38:03;;;;;;;2.38;1.90;;;21.80;99.90;22.10;100784.00;;;;4893351;28;93741;-62
2022/08/23 09:40:43;;;;;;;2.40;1.80;;;21.80;99.90;22.10;100795.00;;;;4890965;28;94996;-61
2022/08/23 09:43:20;;;;;;;2.00;1.73;;;21.90;99.90;22.10;100797.00;;;;4893230;28;94192;-61
2022/08/23 09:45:49;;;;;;;2.45;1.88;;;21.90;99.90;22.10;100796.00;;;;4896055;28;92747;-62
2022/08/23 09:48:41;;;;;;;2.50;2.30;;;21.90;99.90;22.10;100792.00;;;;4894835;28;92758;-61
2022/08/23 09:51:25;;;;;;;2.83;2.20;;;21.90;99.90;22.10;100794.00;;;;4893950;28;94054;-61
2022/08/23 09:54:18;;;;;;;2.97;2.05;;;21.90;99.90;22.10;100794.00;;;;4893062;28;93230;-62
2022/08/23 09:56:56;;;;;;;2.80;1.77;;;21.90;99.90;22.20;100786.00;;;;4909341;28;92221;-61
2022/08/23 09:59:24;;;;;;;1.80;1.67;;;22.00;99.90;22.30;100795.00;;;;4893835;28;93332;-61
2022/08/23 10:01:53;;;;;;;6.47;2.25;;;22.00;99.90;22.30;100792.00;;;;4893177;28;111605;-61
2022/08/23 10:04:36;;;;;;;2.17;1.77;;;22.10;99.90;22.40;100797.00;;;;4892207;28;93741;-62
2022/08/23 10:07:40;;;;;;;4.78;3.17;;;22.20;99.90;22.40;100797.00;;;;4893638;28;95395;-61
2022/08/23 10:10:45;;;;;;;5.82;2.53;;;22.20;99.90;22.50;100799.00;;;;4894953;28;92965;-61
2022/08/23 10:13:11;;;;;;;3.28;2.20;;;22.20;99.90;22.60;100799.00;;;;4890126;28;94193;-60
2022/08/23 10:16:07;;;;;;;4.35;2.03;;;22.30;99.90;22.60;100805.00;;;;4892554;28;107515;-61
2022/08/23 10:19:27;;;;;;;4.32;2.30;;;22.40;99.90;22.60;100806.00;;;;4893157;28;92991;-61
2022/08/23 10:22:15;;;;;;;1.92;1.70;;;22.40;99.90;22.60;100804.00;;;;4891886;28;92654;-61
2022/08/23 10:25:18;;;;;;;2.42;2.00;;;22.40;99.90;22.60;100803.00;;;;4895357;28;92480;-61
2022/08/23 10:31:30;;;;;;;2.30;1.67;;;22.40;99.90;22.50;100808.00;;;;4891152;28;92849;-62
2022/08/23 10:34:38;;;;;;;3.95;2.38;;;22.40;99.90;22.50;100812.00;;;;4890694;28;98811;-62
2022/08/23 10:37:22;;;;;;;1.85;1.70;;;22.30;99.90;22.50;100810.00;;;;4892546;28;114855;-61
2022/08/23 10:40:34;;;;;;;2.95;2.13;;;22.30;99.90;22.50;100817.00;;;;4894032;28;92806;-61
2022/08/23 10:43:44;;;;;;;2.33;1.77;;;22.30;99.90;22.50;100809.00;;;;4869754;28;94688;-61
2022/08/23 10:46:10;;;;;;;4.07;2.25;;;22.30;99.90;22.50;100806.00;;;;4893941;28;92661;-61
2022/08/23 10:48:50;;;;;;;2.28;1.65;;;22.30;99.90;22.50;100809.00;;;;4894310;28;93056;-61
2022/08/23 10:51:23;;;;;;;3.55;1.98;;;22.30;99.90;22.50;100816.00;;;;4890024;28;93507;-61
2022/08/23 10:54:04;;;;;;;2.50;2.30;;;22.30;99.90;22.60;100814.00;;;;4895082;28;92292;-61
2022/08/23 10:56:30;;;;;;;1.88;1.45;;;22.30;99.90;22.60;100815.00;;;;4892445;28;92926;-61
2022/08/23 10:59:08;;;;;;;3.28;1.98;;;22.40;99.90;22.60;100806.00;;;;4893898;28;93956;-61
2022/08/23 11:01:59;;;;;;;1.30;1.20;;;22.40;99.90;22.60;100803.00;;;;4891516;28;93943;-61
2022/08/23 11:04:47;;;;;;;1.90;1.55;;;22.40;99.90;22.70;100807.00;;;;4893123;28;92719;-60
2022/08/23 11:07:27;;;;;;;2.25;1.92;;;22.50;99.90;22.70;100814.00;;;;4893767;28;94871;-60
2022/08/23 11:10:11;;;;;;;2.50;1.48;;;22.50;99.90;22.80;100815.00;;;;4893685;28;92955;-62
2022/08/23 11:13:05;;;;;;;3.45;1.92;;;22.60;99.90;22.90;100818.00;;;;4894243;28;92785;-61
2022/08/23 11:15:59;;;;;;;1.90;1.58;;;22.70;99.90;22.90;100816.00;;;;4890653;28;103144;-61
2022/08/23 11:18:40;;;;;;;2.30;1.73;;;22.60;99.90;22.90;100813.00;;;;4890977;28;93135;-61
2022/08/23 11:21:18;;;;;;;3.08;1.75;;;22.60;99.90;22.90;100822.00;;;;4890912;28;93110;-61